sensor_id;sensor_type;location;lat;lon;timestamp;temperature;humidity
44427;DHT22;30133;47.866;-4.222;2022-07-29T00:02:21;25.70;47.40
44427;DHT22;30133;47.866;-4.222;2022-07-29T00:04:46;25.70;47.40
44427;DHT22;30133;47.866;-4.222;2022-07-29T00:07:13;25.70;47.50
44427;DHT22;30133;47.866;-4.222;2022-07-29T00:09:45;25.70;47.50
44427;DHT22;30133;47.866;-4.222;2022-07-29T00:12:11;25.70;47.50
44427;DHT22;30133;47.866;-4.222;2022-07-29T00:14:37;25.70;47.50
44427;DHT22;30133;47.866;-4.222;2022-07-29T00:17:03;25.70;47.50
44427;DHT22;30133;47.866;-4.222;2022-07-29T00:19:29;25.60;47.40
44427;DHT22;30133;47.866;-4.222;2022-07-29T00:21:55;25.60;47.40
44427;DHT22;30133;47.866;-4.222;2022-07-29T00:24:21;25.60;47.50
44427;DHT22;30133;47.866;-4.222;2022-07-29T00:26:47;25.60;47.50
44427;DHT22;30133;47.866;-4.222;2022-07-29T00:29:13;25.60;47.50
44427;DHT22;30133;47.866;-4.222;2022-07-29T00:31:39;25.60;47.50
44427;DHT22;30133;47.866;-4.222;2022-07-29T00:34:05;25.60;47.50
44427;DHT22;30133;47.866;-4.222;2022-07-29T00:36:51;25.60;47.60
44427;DHT22;30133;47.866;-4.222;2022-07-29T00:39:17;25.60;47.60
44427;DHT22;30133;47.866;-4.222;2022-07-29T00:41:43;25.60;47.60
44427;DHT22;30133;47.866;-4.222;2022-07-29T00:44:09;25.60;47.60
44427;DHT22;30133;47.866;-4.222;2022-07-29T00:46:35;25.60;47.60
44427;DHT22;30133;47.866;-4.222;2022-07-29T00:49:01;25.60;47.60
44427;DHT22;30133;47.866;-4.222;2022-07-29T00:51:27;25.60;47.80
44427;DHT22;30133;47.866;-4.222;2022-07-29T00:53:53;25.60;47.60
44427;DHT22;30133;47.866;-4.222;2022-07-29T00:56:19;25.60;47.60
44427;DHT22;30133;47.866;-4.222;2022-07-29T00:58:47;25.60;47.60
44427;DHT22;30133;47.866;-4.222;2022-07-29T01:01:13;25.60;47.60
44427;DHT22;30133;47.866;-4.222;2022-07-29T01:03:39;25.60;47.60
44427;DHT22;30133;47.866;-4.222;2022-07-29T01:06:05;25.60;47.70
44427;DHT22;30133;47.866;-4.222;2022-07-29T01:08:32;25.60;47.70
44427;DHT22;30133;47.866;-4.222;2022-07-29T01:11:05;25.60;47.70
44427;DHT22;30133;47.866;-4.222;2022-07-29T01:13:31;25.60;47.70
44427;DHT22;30133;47.866;-4.222;2022-07-29T01:16:13;25.60;47.70
44427;DHT22;30133;47.866;-4.222;2022-07-29T01:18:47;25.60;47.70
44427;DHT22;30133;47.866;-4.222;2022-07-29T01:21:32;25.60;47.80
44427;DHT22;30133;47.866;-4.222;2022-07-29T01:27:45;25.50;47.70
44427;DHT22;30133;47.866;-4.222;2022-07-29T01:30:17;25.50;47.80
44427;DHT22;30133;47.866;-4.222;2022-07-29T01:32:47;25.50;47.80
44427;DHT22;30133;47.866;-4.222;2022-07-29T01:35:54;25.50;47.80
44427;DHT22;30133;47.866;-4.222;2022-07-29T01:38:22;25.50;47.80
44427;DHT22;30133;47.866;-4.222;2022-07-29T01:41:02;25.50;47.90
44427;DHT22;30133;47.866;-4.222;2022-07-29T01:43:51;25.50;47.90
44427;DHT22;30133;47.866;-4.222;2022-07-29T01:46:35;25.50;47.90
44427;DHT22;30133;47.866;-4.222;2022-07-29T01:49:16;25.40;47.80
44427;DHT22;30133;47.866;-4.222;2022-07-29T01:51:57;25.40;47.90
44427;DHT22;30133;47.866;-4.222;2022-07-29T01:54:34;25.40;47.90
44427;DHT22;30133;47.866;-4.222;2022-07-29T01:57:04;25.40;47.90
44427;DHT22;30133;47.866;-4.222;2022-07-29T01:59:34;25.40;47.90
44427;DHT22;30133;47.866;-4.222;2022-07-29T02:02:01;25.40;47.90
44427;DHT22;30133;47.866;-4.222;2022-07-29T02:04:28;25.40;47.90
44427;DHT22;30133;47.866;-4.222;2022-07-29T02:06:57;25.40;47.90
44427;DHT22;30133;47.866;-4.222;2022-07-29T02:09:25;25.40;47.90
44427;DHT22;30133;47.866;-4.222;2022-07-29T02:11:59;25.40;47.90
44427;DHT22;30133;47.866;-4.222;2022-07-29T02:14:28;25.40;47.90
44427;DHT22;30133;47.866;-4.222;2022-07-29T02:16:59;25.40;47.90
44427;DHT22;30133;47.866;-4.222;2022-07-29T02:19:26;25.40;47.90
44427;DHT22;30133;47.866;-4.222;2022-07-29T02:21:54;25.40;47.90
44427;DHT22;30133;47.866;-4.222;2022-07-29T02:24:23;25.40;47.90
44427;DHT22;30133;47.866;-4.222;2022-07-29T02:26:52;25.40;47.90
44427;DHT22;30133;47.866;-4.222;2022-07-29T02:29:22;25.40;47.90
44427;DHT22;30133;47.866;-4.222;2022-07-29T02:31:50;25.40;48.00
44427;DHT22;30133;47.866;-4.222;2022-07-29T02:34:18;25.40;48.00
44427;DHT22;30133;47.866;-4.222;2022-07-29T02:36:46;25.40;48.00
44427;DHT22;30133;47.866;-4.222;2022-07-29T02:39:15;25.40;48.00
44427;DHT22;30133;47.866;-4.222;2022-07-29T02:41:47;25.40;48.00
44427;DHT22;30133;47.866;-4.222;2022-07-29T02:44:17;25.40;48.00
44427;DHT22;30133;47.866;-4.222;2022-07-29T02:46:53;25.40;48.00
44427;DHT22;30133;47.866;-4.222;2022-07-29T02:52:12;25.40;48.10
44427;DHT22;30133;47.866;-4.222;2022-07-29T02:58:08;25.30;48.00
44427;DHT22;30133;47.866;-4.222;2022-07-29T03:00:49;25.30;48.00
44427;DHT22;30133;47.866;-4.222;2022-07-29T03:03:18;25.30;48.10
44427;DHT22;30133;47.866;-4.222;2022-07-29T03:05:44;25.30;48.10
44427;DHT22;30133;47.866;-4.222;2022-07-29T03:08:12;25.30;48.10
44427;DHT22;30133;47.866;-4.222;2022-07-29T03:10:42;25.30;48.10
44427;DHT22;30133;47.866;-4.222;2022-07-29T03:13:16;25.30;48.10
44427;DHT22;30133;47.866;-4.222;2022-07-29T03:15:44;25.30;48.10
44427;DHT22;30133;47.866;-4.222;2022-07-29T03:18:10;25.30;48.10
44427;DHT22;30133;47.866;-4.222;2022-07-29T03:20:38;25.30;48.10
44427;DHT22;30133;47.866;-4.222;2022-07-29T03:23:05;25.30;48.10
44427;DHT22;30133;47.866;-4.222;2022-07-29T03:25:31;25.30;48.10
44427;DHT22;30133;47.866;-4.222;2022-07-29T03:27:57;25.30;48.20
44427;DHT22;30133;47.866;-4.222;2022-07-29T03:30:23;25.30;48.10
44427;DHT22;30133;47.866;-4.222;2022-07-29T03:32:51;25.30;48.10
44427;DHT22;30133;47.866;-4.222;2022-07-29T03:35:20;25.30;48.10
44427;DHT22;30133;47.866;-4.222;2022-07-29T03:37:47;25.30;48.20
44427;DHT22;30133;47.866;-4.222;2022-07-29T03:40:38;25.30;48.20
44427;DHT22;30133;47.866;-4.222;2022-07-29T03:43:17;25.30;48.20
44427;DHT22;30133;47.866;-4.222;2022-07-29T03:45:47;25.30;48.20
44427;DHT22;30133;47.866;-4.222;2022-07-29T03:48:17;25.20;48.10
44427;DHT22;30133;47.866;-4.222;2022-07-29T03:50:46;25.20;48.20
44427;DHT22;30133;47.866;-4.222;2022-07-29T03:53:12;25.20;48.20
44427;DHT22;30133;47.866;-4.222;2022-07-29T03:55:52;25.20;48.20
44427;DHT22;30133;47.866;-4.222;2022-07-29T03:58:21;25.30;48.20
44427;DHT22;30133;47.866;-4.222;2022-07-29T04:00:48;25.20;48.20
44427;DHT22;30133;47.866;-4.222;2022-07-29T04:03:14;25.20;48.20
44427;DHT22;30133;47.866;-4.222;2022-07-29T04:05:42;25.20;48.20
44427;DHT22;30133;47.866;-4.222;2022-07-29T04:08:07;25.20;48.20
44427;DHT22;30133;47.866;-4.222;2022-07-29T04:10:33;25.20;48.20
44427;DHT22;30133;47.866;-4.222;2022-07-29T04:12:59;25.20;48.20
44427;DHT22;30133;47.866;-4.222;2022-07-29T04:15:32;25.20;48.20
44427;DHT22;30133;47.866;-4.222;2022-07-29T04:17:59;25.20;48.20
44427;DHT22;30133;47.866;-4.222;2022-07-29T04:20:25;25.20;48.20
44427;DHT22;30133;47.866;-4.222;2022-07-29T04:22:51;25.20;48.20
44427;DHT22;30133;47.866;-4.222;2022-07-29T04:25:16;25.20;48.20
44427;DHT22;30133;47.866;-4.222;2022-07-29T04:27:44;25.20;48.20
44427;DHT22;30133;47.866;-4.222;2022-07-29T04:30:29;25.20;48.20
44427;DHT22;30133;47.866;-4.222;2022-07-29T04:32:56;25.20;48.30
44427;DHT22;30133;47.866;-4.222;2022-07-29T04:35:22;25.20;48.20
44427;DHT22;30133;47.866;-4.222;2022-07-29T04:37:48;25.20;48.30
44427;DHT22;30133;47.866;-4.222;2022-07-29T04:40:14;25.20;48.30
44427;DHT22;30133;47.866;-4.222;2022-07-29T04:42:40;25.20;48.30
44427;DHT22;30133;47.866;-4.222;2022-07-29T04:45:06;25.20;48.30
44427;DHT22;30133;47.866;-4.222;2022-07-29T04:47:32;25.20;48.30
44427;DHT22;30133;47.866;-4.222;2022-07-29T04:49:58;25.20;48.30
44427;DHT22;30133;47.866;-4.222;2022-07-29T04:52:24;25.20;48.30
44427;DHT22;30133;47.866;-4.222;2022-07-29T04:54:50;25.20;48.30
44427;DHT22;30133;47.866;-4.222;2022-07-29T04:57:16;25.20;48.30
44427;DHT22;30133;47.866;-4.222;2022-07-29T04:59:42;25.20;48.30
44427;DHT22;30133;47.866;-4.222;2022-07-29T05:02:09;25.20;48.40
44427;DHT22;30133;47.866;-4.222;2022-07-29T05:04:35;25.20;48.30
44427;DHT22;30133;47.866;-4.222;2022-07-29T05:07:01;25.10;48.30
44427;DHT22;30133;47.866;-4.222;2022-07-29T05:09:27;25.20;48.40
44427;DHT22;30133;47.866;-4.222;2022-07-29T05:11:53;25.10;48.30
44427;DHT22;30133;47.866;-4.222;2022-07-29T05:14:18;25.10;48.30
44427;DHT22;30133;47.866;-4.222;2022-07-29T05:16:51;25.20;48.40
44427;DHT22;30133;47.866;-4.222;2022-07-29T05:19:18;25.10;48.30
44427;DHT22;30133;47.866;-4.222;2022-07-29T05:21:47;25.10;48.30
44427;DHT22;30133;47.866;-4.222;2022-07-29T05:24:13;25.10;48.40
44427;DHT22;30133;47.866;-4.222;2022-07-29T05:26:39;25.10;48.40
44427;DHT22;30133;47.866;-4.222;2022-07-29T05:29:06;25.10;48.40
44427;DHT22;30133;47.866;-4.222;2022-07-29T05:31:32;25.10;49.00
44427;DHT22;30133;47.866;-4.222;2022-07-29T05:33:59;25.10;48.40
44427;DHT22;30133;47.866;-4.222;2022-07-29T05:36:25;25.10;48.40
44427;DHT22;30133;47.866;-4.222;2022-07-29T05:38:51;25.10;48.40
44427;DHT22;30133;47.866;-4.222;2022-07-29T05:41:18;25.10;48.40
44427;DHT22;30133;47.866;-4.222;2022-07-29T05:43:44;25.10;48.40
44427;DHT22;30133;47.866;-4.222;2022-07-29T05:46:10;25.10;48.40
44427;DHT22;30133;47.866;-4.222;2022-07-29T05:48:36;25.10;48.50
44427;DHT22;30133;47.866;-4.222;2022-07-29T05:51:02;25.10;48.50
44427;DHT22;30133;47.866;-4.222;2022-07-29T05:53:28;25.10;48.50
44427;DHT22;30133;47.866;-4.222;2022-07-29T05:55:54;25.10;48.50
44427;DHT22;30133;47.866;-4.222;2022-07-29T05:58:20;25.10;48.50
44427;DHT22;30133;47.866;-4.222;2022-07-29T06:00:46;25.10;48.50
44427;DHT22;30133;47.866;-4.222;2022-07-29T06:03:12;25.10;48.50
44427;DHT22;30133;47.866;-4.222;2022-07-29T06:05:38;25.10;48.50
44427;DHT22;30133;47.866;-4.222;2022-07-29T06:08:05;25.10;48.50
44427;DHT22;30133;47.866;-4.222;2022-07-29T06:10:32;25.00;48.40
44427;DHT22;30133;47.866;-4.222;2022-07-29T06:13:00;25.10;48.50
44427;DHT22;30133;47.866;-4.222;2022-07-29T06:15:26;25.00;48.50
44427;DHT22;30133;47.866;-4.222;2022-07-29T06:17:59;25.10;48.50
44427;DHT22;30133;47.866;-4.222;2022-07-29T06:20:25;25.10;48.50
44427;DHT22;30133;47.866;-4.222;2022-07-29T06:22:52;25.00;48.50
44427;DHT22;30133;47.866;-4.222;2022-07-29T06:25:18;25.00;48.50
44427;DHT22;30133;47.866;-4.222;2022-07-29T06:27:44;25.00;48.50
44427;DHT22;30133;47.866;-4.222;2022-07-29T06:30:10;25.00;48.50
44427;DHT22;30133;47.866;-4.222;2022-07-29T06:32:36;25.00;48.50
44427;DHT22;30133;47.866;-4.222;2022-07-29T06:35:02;25.00;48.50
44427;DHT22;30133;47.866;-4.222;2022-07-29T06:37:28;25.00;48.50
44427;DHT22;30133;47.866;-4.222;2022-07-29T06:39:54;25.00;48.50
44427;DHT22;30133;47.866;-4.222;2022-07-29T06:42:42;25.00;48.50
44427;DHT22;30133;47.866;-4.222;2022-07-29T06:45:09;25.00;48.60
44427;DHT22;30133;47.866;-4.222;2022-07-29T06:47:36;25.00;48.70
44427;DHT22;30133;47.866;-4.222;2022-07-29T06:50:02;25.00;48.70
44427;DHT22;30133;47.866;-4.222;2022-07-29T06:52:29;25.00;48.70
44427;DHT22;30133;47.866;-4.222;2022-07-29T06:54:55;25.00;48.60
44427;DHT22;30133;47.866;-4.222;2022-07-29T06:57:21;25.00;48.60
44427;DHT22;30133;47.866;-4.222;2022-07-29T06:59:47;25.00;48.70
44427;DHT22;30133;47.866;-4.222;2022-07-29T07:02:13;25.00;48.60
44427;DHT22;30133;47.866;-4.222;2022-07-29T07:04:39;25.00;48.70
44427;DHT22;30133;47.866;-4.222;2022-07-29T07:07:05;25.00;48.60
44427;DHT22;30133;47.866;-4.222;2022-07-29T07:09:31;25.00;48.60
44427;DHT22;30133;47.866;-4.222;2022-07-29T07:11:58;25.00;48.60
44427;DHT22;30133;47.866;-4.222;2022-07-29T07:14:24;25.00;48.60
44427;DHT22;30133;47.866;-4.222;2022-07-29T07:16:52;25.00;48.70
44427;DHT22;30133;47.866;-4.222;2022-07-29T07:19:24;25.00;48.70
44427;DHT22;30133;47.866;-4.222;2022-07-29T07:21:54;25.00;48.70
44427;DHT22;30133;47.866;-4.222;2022-07-29T07:24:20;25.00;48.70
44427;DHT22;30133;47.866;-4.222;2022-07-29T07:26:46;25.00;49.30
44427;DHT22;30133;47.866;-4.222;2022-07-29T07:29:12;25.00;48.70
44427;DHT22;30133;47.866;-4.222;2022-07-29T07:31:38;25.00;48.70
44427;DHT22;30133;47.866;-4.222;2022-07-29T07:34:04;25.00;48.80
44427;DHT22;30133;47.866;-4.222;2022-07-29T07:36:31;25.00;48.90
44427;DHT22;30133;47.866;-4.222;2022-07-29T07:38:57;24.90;48.90
44427;DHT22;30133;47.866;-4.222;2022-07-29T07:41:23;24.90;49.00
44427;DHT22;30133;47.866;-4.222;2022-07-29T07:43:49;24.90;49.00
44427;DHT22;30133;47.866;-4.222;2022-07-29T07:46:15;24.90;49.00
44427;DHT22;30133;47.866;-4.222;2022-07-29T07:48:42;24.90;49.10
44427;DHT22;30133;47.866;-4.222;2022-07-29T07:51:07;24.90;49.10
44427;DHT22;30133;47.866;-4.222;2022-07-29T07:53:40;24.90;49.10
44427;DHT22;30133;47.866;-4.222;2022-07-29T07:56:06;24.90;49.10
44427;DHT22;30133;47.866;-4.222;2022-07-29T07:58:32;24.80;49.10
44427;DHT22;30133;47.866;-4.222;2022-07-29T08:01:00;24.80;49.10
44427;DHT22;30133;47.866;-4.222;2022-07-29T08:03:26;24.80;49.10
44427;DHT22;30133;47.866;-4.222;2022-07-29T08:05:52;24.90;49.20
44427;DHT22;30133;47.866;-4.222;2022-07-29T08:08:20;24.90;49.20
44427;DHT22;30133;47.866;-4.222;2022-07-29T08:10:46;24.90;49.20
44427;DHT22;30133;47.866;-4.222;2022-07-29T08:13:19;24.90;49.20
44427;DHT22;30133;47.866;-4.222;2022-07-29T08:15:47;25.00;49.30
44427;DHT22;30133;47.866;-4.222;2022-07-29T08:18:30;25.00;49.30
44427;DHT22;30133;47.866;-4.222;2022-07-29T08:21:03;25.00;50.20
44427;DHT22;30133;47.866;-4.222;2022-07-29T08:23:30;25.10;49.50
44427;DHT22;30133;47.866;-4.222;2022-07-29T08:26:12;25.10;49.40
44427;DHT22;30133;47.866;-4.222;2022-07-29T08:28:40;25.10;49.40
44427;DHT22;30133;47.866;-4.222;2022-07-29T08:31:07;25.10;49.40
44427;DHT22;30133;47.866;-4.222;2022-07-29T08:33:33;25.20;49.50
44427;DHT22;30133;47.866;-4.222;2022-07-29T08:35:59;25.20;49.40
44427;DHT22;30133;47.866;-4.222;2022-07-29T08:38:25;25.20;49.40
44427;DHT22;30133;47.866;-4.222;2022-07-29T08:40:53;25.30;49.40
44427;DHT22;30133;47.866;-4.222;2022-07-29T08:43:19;25.30;49.40
44427;DHT22;30133;47.866;-4.222;2022-07-29T08:45:48;25.30;49.40
44427;DHT22;30133;47.866;-4.222;2022-07-29T08:48:21;25.30;49.60
44427;DHT22;30133;47.866;-4.222;2022-07-29T08:50:52;25.40;49.60
44427;DHT22;30133;47.866;-4.222;2022-07-29T08:53:22;25.40;49.70
44427;DHT22;30133;47.866;-4.222;2022-07-29T08:55:53;25.40;49.60
44427;DHT22;30133;47.866;-4.222;2022-07-29T08:58:22;25.40;49.60
44427;DHT22;30133;47.866;-4.222;2022-07-29T09:00:52;25.50;49.60
44427;DHT22;30133;47.866;-4.222;2022-07-29T09:03:23;25.50;49.70
44427;DHT22;30133;47.866;-4.222;2022-07-29T09:05:52;25.50;49.20
44427;DHT22;30133;47.866;-4.222;2022-07-29T09:08:19;25.60;48.60
44427;DHT22;30133;47.866;-4.222;2022-07-29T09:10:45;25.60;48.80
44427;DHT22;30133;47.866;-4.222;2022-07-29T09:13:12;25.60;49.00
44427;DHT22;30133;47.866;-4.222;2022-07-29T09:15:38;25.70;49.00
44427;DHT22;30133;47.866;-4.222;2022-07-29T09:18:04;25.70;49.20
44427;DHT22;30133;47.866;-4.222;2022-07-29T09:20:31;25.70;49.70
44427;DHT22;30133;47.866;-4.222;2022-07-29T09:23:22;25.70;49.70
44427;DHT22;30133;47.866;-4.222;2022-07-29T09:25:48;25.80;49.40
44427;DHT22;30133;47.866;-4.222;2022-07-29T09:28:16;25.80;49.10
44427;DHT22;30133;47.866;-4.222;2022-07-29T09:31:11;25.90;49.10
44427;DHT22;30133;47.866;-4.222;2022-07-29T09:33:37;25.90;49.00
44427;DHT22;30133;47.866;-4.222;2022-07-29T09:36:09;25.90;49.10
44427;DHT22;30133;47.866;-4.222;2022-07-29T09:38:37;26.00;49.20
44427;DHT22;30133;47.866;-4.222;2022-07-29T09:41:04;26.10;49.20
44427;DHT22;30133;47.866;-4.222;2022-07-29T09:43:34;26.10;49.00
44427;DHT22;30133;47.866;-4.222;2022-07-29T09:46:10;26.10;48.90
44427;DHT22;30133;47.866;-4.222;2022-07-29T09:48:37;26.10;48.80
44427;DHT22;30133;47.866;-4.222;2022-07-29T09:51:03;26.20;48.80
44427;DHT22;30133;47.866;-4.222;2022-07-29T09:53:36;26.10;48.70
44427;DHT22;30133;47.866;-4.222;2022-07-29T09:56:04;26.20;49.30
44427;DHT22;30133;47.866;-4.222;2022-07-29T09:58:31;26.20;48.70
44427;DHT22;30133;47.866;-4.222;2022-07-29T10:01:02;26.20;48.80
44427;DHT22;30133;47.866;-4.222;2022-07-29T10:03:29;26.20;48.70
44427;DHT22;30133;47.866;-4.222;2022-07-29T10:06:09;26.20;48.60
44427;DHT22;30133;47.866;-4.222;2022-07-29T10:08:36;26.30;48.50
44427;DHT22;30133;47.866;-4.222;2022-07-29T10:11:15;26.30;48.70
44427;DHT22;30133;47.866;-4.222;2022-07-29T10:13:44;26.30;48.80
44427;DHT22;30133;47.866;-4.222;2022-07-29T10:16:16;26.30;48.80
44427;DHT22;30133;47.866;-4.222;2022-07-29T10:18:44;26.30;48.80
44427;DHT22;30133;47.866;-4.222;2022-07-29T10:21:10;26.30;48.80
44427;DHT22;30133;47.866;-4.222;2022-07-29T10:23:43;26.30;48.80
44427;DHT22;30133;47.866;-4.222;2022-07-29T10:26:11;26.40;48.80
44427;DHT22;30133;47.866;-4.222;2022-07-29T10:28:37;26.40;48.80
44427;DHT22;30133;47.866;-4.222;2022-07-29T10:31:06;26.40;48.80
44427;DHT22;30133;47.866;-4.222;2022-07-29T10:42:52;26.50;48.90
44427;DHT22;30133;47.866;-4.222;2022-07-29T10:45:20;26.50;48.90
44427;DHT22;30133;47.866;-4.222;2022-07-29T10:47:47;26.50;48.90
44427;DHT22;30133;47.866;-4.222;2022-07-29T10:50:14;26.50;48.80
44427;DHT22;30133;47.866;-4.222;2022-07-29T10:55:37;26.50;48.80
44427;DHT22;30133;47.866;-4.222;2022-07-29T10:58:22;26.60;48.80
44427;DHT22;30133;47.866;-4.222;2022-07-29T11:00:53;26.60;48.80
44427;DHT22;30133;47.866;-4.222;2022-07-29T11:03:42;26.60;48.80
44427;DHT22;30133;47.866;-4.222;2022-07-29T11:06:12;26.70;48.80
44427;DHT22;30133;47.866;-4.222;2022-07-29T11:08:39;26.60;48.70
44427;DHT22;30133;47.866;-4.222;2022-07-29T11:13:53;26.70;48.70
44427;DHT22;30133;47.866;-4.222;2022-07-29T11:16:22;26.70;48.70
44427;DHT22;30133;47.866;-4.222;2022-07-29T11:21:45;26.80;48.70
44427;DHT22;30133;47.866;-4.222;2022-07-29T11:24:27;26.80;48.70
44427;DHT22;30133;47.866;-4.222;2022-07-29T11:27:20;26.80;48.60
44427;DHT22;30133;47.866;-4.222;2022-07-29T11:29:56;26.80;48.60
44427;DHT22;30133;47.866;-4.222;2022-07-29T11:32:25;26.80;48.60
44427;DHT22;30133;47.866;-4.222;2022-07-29T11:35:15;26.80;48.60
44427;DHT22;30133;47.866;-4.222;2022-07-29T11:43:59;26.80;48.50
44427;DHT22;30133;47.866;-4.222;2022-07-29T11:49:22;26.90;48.60
44427;DHT22;30133;47.866;-4.222;2022-07-29T11:51:53;26.90;48.60
44427;DHT22;30133;47.866;-4.222;2022-07-29T11:54:33;26.90;48.50
44427;DHT22;30133;47.866;-4.222;2022-07-29T11:57:00;26.90;48.50
44427;DHT22;30133;47.866;-4.222;2022-07-29T11:59:26;26.90;48.50
44427;DHT22;30133;47.866;-4.222;2022-07-29T12:01:55;26.90;48.50
44427;DHT22;30133;47.866;-4.222;2022-07-29T12:04:23;26.90;48.50
44427;DHT22;30133;47.866;-4.222;2022-07-29T12:06:51;26.90;48.50
44427;DHT22;30133;47.866;-4.222;2022-07-29T12:09:22;26.90;48.40
44427;DHT22;30133;47.866;-4.222;2022-07-29T12:11:58;26.90;48.40
44427;DHT22;30133;47.866;-4.222;2022-07-29T12:14:30;26.90;48.40
44427;DHT22;30133;47.866;-4.222;2022-07-29T12:16:58;26.90;48.40
44427;DHT22;30133;47.866;-4.222;2022-07-29T12:19:27;26.90;48.40
44427;DHT22;30133;47.866;-4.222;2022-07-29T12:21:54;27.00;48.40
44427;DHT22;30133;47.866;-4.222;2022-07-29T12:24:43;26.90;48.30
44427;DHT22;30133;47.866;-4.222;2022-07-29T12:27:12;27.00;48.40
44427;DHT22;30133;47.866;-4.222;2022-07-29T12:29:42;26.90;48.30
44427;DHT22;30133;47.866;-4.222;2022-07-29T12:32:09;27.00;48.40
44427;DHT22;30133;47.866;-4.222;2022-07-29T12:34:35;27.00;48.40
44427;DHT22;30133;47.866;-4.222;2022-07-29T12:37:02;27.00;48.90
44427;DHT22;30133;47.866;-4.222;2022-07-29T12:39:29;26.90;48.60
44427;DHT22;30133;47.866;-4.222;2022-07-29T12:41:55;27.00;48.70
44427;DHT22;30133;47.866;-4.222;2022-07-29T12:44:21;27.00;48.80
44427;DHT22;30133;47.866;-4.222;2022-07-29T12:47:04;27.00;49.10
44427;DHT22;30133;47.866;-4.222;2022-07-29T12:49:30;27.00;49.30
44427;DHT22;30133;47.866;-4.222;2022-07-29T12:51:58;27.00;49.70
44427;DHT22;30133;47.866;-4.222;2022-07-29T12:54:24;27.00;50.00
44427;DHT22;30133;47.866;-4.222;2022-07-29T12:56:58;26.90;49.80
44427;DHT22;30133;47.866;-4.222;2022-07-29T12:59:25;26.90;49.90
44427;DHT22;30133;47.866;-4.222;2022-07-29T13:01:52;27.00;50.00
44427;DHT22;30133;47.866;-4.222;2022-07-29T13:04:29;27.00;50.00
44427;DHT22;30133;47.866;-4.222;2022-07-29T13:07:04;27.00;49.30
44427;DHT22;30133;47.866;-4.222;2022-07-29T13:09:42;27.00;47.90
44427;DHT22;30133;47.866;-4.222;2022-07-29T13:12:13;26.90;48.40
44427;DHT22;30133;47.866;-4.222;2022-07-29T13:14:47;27.00;48.40
44427;DHT22;30133;47.866;-4.222;2022-07-29T13:17:16;26.90;48.40
44427;DHT22;30133;47.866;-4.222;2022-07-29T13:19:51;27.00;48.40
44427;DHT22;30133;47.866;-4.222;2022-07-29T13:22:24;27.00;47.20
44427;DHT22;30133;47.866;-4.222;2022-07-29T13:24:58;27.00;47.30
44427;DHT22;30133;47.866;-4.222;2022-07-29T13:27:29;27.00;46.80
44427;DHT22;30133;47.866;-4.222;2022-07-29T13:29:59;27.00;46.80
44427;DHT22;30133;47.866;-4.222;2022-07-29T13:32:28;27.00;46.80
44427;DHT22;30133;47.866;-4.222;2022-07-29T13:34:56;27.00;46.80
44427;DHT22;30133;47.866;-4.222;2022-07-29T13:37:25;27.00;47.60
44427;DHT22;30133;47.866;-4.222;2022-07-29T13:39:56;27.00;47.50
44427;DHT22;30133;47.866;-4.222;2022-07-29T13:42:23;27.10;47.50
44427;DHT22;30133;47.866;-4.222;2022-07-29T13:44:50;27.10;47.30
44427;DHT22;30133;47.866;-4.222;2022-07-29T13:47:18;27.10;47.20
44427;DHT22;30133;47.866;-4.222;2022-07-29T13:49:47;27.20;46.60
44427;DHT22;30133;47.866;-4.222;2022-07-29T13:52:13;27.10;47.00
44427;DHT22;30133;47.866;-4.222;2022-07-29T13:54:49;27.10;47.20
44427;DHT22;30133;47.866;-4.222;2022-07-29T13:57:28;27.10;47.20
44427;DHT22;30133;47.866;-4.222;2022-07-29T14:00:01;27.00;46.90
44427;DHT22;30133;47.866;-4.222;2022-07-29T14:02:28;27.10;46.80
44427;DHT22;30133;47.866;-4.222;2022-07-29T14:04:54;27.00;46.50
44427;DHT22;30133;47.866;-4.222;2022-07-29T14:07:20;27.10;46.50
44427;DHT22;30133;47.866;-4.222;2022-07-29T14:09:46;27.10;46.70
44427;DHT22;30133;47.866;-4.222;2022-07-29T14:12:12;27.20;46.80
44427;DHT22;30133;47.866;-4.222;2022-07-29T14:14:38;27.20;47.00
44427;DHT22;30133;47.866;-4.222;2022-07-29T14:17:05;27.20;47.30
44427;DHT22;30133;47.866;-4.222;2022-07-29T14:19:31;27.20;47.60
44427;DHT22;30133;47.866;-4.222;2022-07-29T14:22:05;27.30;47.90
44427;DHT22;30133;47.866;-4.222;2022-07-29T14:24:33;27.30;48.30
44427;DHT22;30133;47.866;-4.222;2022-07-29T14:26:59;27.30;48.60
44427;DHT22;30133;47.866;-4.222;2022-07-29T14:29:25;27.30;48.90
44427;DHT22;30133;47.866;-4.222;2022-07-29T14:31:52;27.30;48.30
44427;DHT22;30133;47.866;-4.222;2022-07-29T14:34:18;27.40;48.10
44427;DHT22;30133;47.866;-4.222;2022-07-29T14:36:45;27.50;48.90
44427;DHT22;30133;47.866;-4.222;2022-07-29T14:39:11;27.50;48.10
44427;DHT22;30133;47.866;-4.222;2022-07-29T14:41:37;27.50;47.50
44427;DHT22;30133;47.866;-4.222;2022-07-29T14:44:04;27.50;47.40
44427;DHT22;30133;47.866;-4.222;2022-07-29T14:46:30;27.50;46.80
44427;DHT22;30133;47.866;-4.222;2022-07-29T14:48:56;27.50;46.80
44427;DHT22;30133;47.866;-4.222;2022-07-29T14:51:22;27.50;47.20
44427;DHT22;30133;47.866;-4.222;2022-07-29T14:53:48;27.50;47.10
44427;DHT22;30133;47.866;-4.222;2022-07-29T14:56:16;27.50;47.00
44427;DHT22;30133;47.866;-4.222;2022-07-29T14:58:42;27.50;47.40
44427;DHT22;30133;47.866;-4.222;2022-07-29T15:01:15;27.50;47.20
44427;DHT22;30133;47.866;-4.222;2022-07-29T15:03:41;27.50;47.60
44427;DHT22;30133;47.866;-4.222;2022-07-29T15:06:07;27.60;46.70
44427;DHT22;30133;47.866;-4.222;2022-07-29T15:08:33;27.60;46.70
44427;DHT22;30133;47.866;-4.222;2022-07-29T15:10:59;27.60;46.40
44427;DHT22;30133;47.866;-4.222;2022-07-29T15:13:26;27.60;46.00
44427;DHT22;30133;47.866;-4.222;2022-07-29T15:15:52;27.60;45.30
44427;DHT22;30133;47.866;-4.222;2022-07-29T15:18:18;27.50;45.20
44427;DHT22;30133;47.866;-4.222;2022-07-29T15:20:44;27.50;45.40
44427;DHT22;30133;47.866;-4.222;2022-07-29T15:23:12;27.50;45.90
44427;DHT22;30133;47.866;-4.222;2022-07-29T15:25:38;27.60;45.80
44427;DHT22;30133;47.866;-4.222;2022-07-29T15:28:05;27.60;46.40
44427;DHT22;30133;47.866;-4.222;2022-07-29T15:30:35;27.60;46.60
44427;DHT22;30133;47.866;-4.222;2022-07-29T15:33:07;27.60;46.90
44427;DHT22;30133;47.866;-4.222;2022-07-29T15:35:38;27.60;46.30
44427;DHT22;30133;47.866;-4.222;2022-07-29T15:38:04;27.70;46.50
44427;DHT22;30133;47.866;-4.222;2022-07-29T15:40:30;27.60;46.80
44427;DHT22;30133;47.866;-4.222;2022-07-29T15:42:57;27.60;46.10
44427;DHT22;30133;47.866;-4.222;2022-07-29T15:45:28;27.60;45.60
44427;DHT22;30133;47.866;-4.222;2022-07-29T15:47:55;27.60;45.40
44427;DHT22;30133;47.866;-4.222;2022-07-29T15:50:23;27.60;45.40
44427;DHT22;30133;47.866;-4.222;2022-07-29T15:53:10;27.60;45.20
44427;DHT22;30133;47.866;-4.222;2022-07-29T15:55:57;27.60;45.50
44427;DHT22;30133;47.866;-4.222;2022-07-29T15:58:45;27.60;46.20
44427;DHT22;30133;47.866;-4.222;2022-07-29T16:01:32;27.60;45.80
44427;DHT22;30133;47.866;-4.222;2022-07-29T16:04:26;27.60;45.50
44427;DHT22;30133;47.866;-4.222;2022-07-29T16:07:15;27.60;45.80